
Distance (Route):
Temperature : 0°C
Humidity : 0%
Pressure : 0hPa| Receiver | Date | Latitude | Longitude | Direction | Speed | Altitude | Climb | Temperature | Humidity | Pressure | Voltage | Killtimer | Uptime | BKT | XDATA |
|---|---|---|---|---|---|---|---|---|---|---|---|---|---|---|---|
| DB0UT-7 | 2026-09-02 12:51:15 | 46.27305 | 3.82575 | 137° | 99km/h | 9431m | -2.5m/s | 0°C | 0% | 0hPa | 0V | 00:00:00 | 00:00:00 | 00:00:00 | |
| DB0UT-7 | 2026-09-02 12:50:04 | 46.28634 | 3.80891 | 223° | 97km/h | 9625m | -2.6m/s | 0°C | 0% | 0hPa | 0V | 00:00:00 | 00:00:00 | 00:00:00 | |
| DB0UT-7 | 2026-09-02 12:49:34 | 46.29220 | 3.80239 | 144° | 100km/h | 9694m | -2.7m/s | 0°C | 0% | 0hPa | 0V | 00:00:00 | 00:00:00 | 00:00:00 | |
| DB0UT-7 | 2026-09-02 12:48:12 | 46.30910 | 3.78539 | 145° | 104km/h | 9931m | -2.9m/s | 0°C | 0% | 0hPa | 0V | 00:00:00 | 00:00:00 | 00:00:00 | |
| DB0UT-7 | 2026-09-02 12:47:40 | 46.31603 | 3.77870 | 147° | 106km/h | 10024m | -2.8m/s | 0°C | 0% | 0hPa | 0V | 00:00:00 | 00:00:00 | 00:00:00 | |
| DB0UT-7 | 2026-09-02 12:46:54 | 46.32630 | 3.76881 | 147° | 100km/h | 10160m | -2.9m/s | 0°C | 0% | 0hPa | 0V | 00:00:00 | 00:00:00 | 00:00:00 | |
| DB0UT-7 | 2026-09-02 12:46:24 | 46.33291 | 3.76199 | 145° | 108km/h | 10246m | -3.2m/s | 0°C | 0% | 0hPa | 0V | 00:00:00 | 00:00:00 | 00:00:00 | |
| DB0UT-7 | 2026-09-02 12:45:54 | 46.33948 | 3.75486 | 143° | 108km/h | 10335m | -3.0m/s | 0°C | 0% | 0hPa | 0V | 00:00:00 | 00:00:00 | 00:00:00 | |
| DB0UT-7 | 2026-09-02 12:45:24 | 46.34595 | 3.74768 | 144° | 111km/h | 10426m | -3.0m/s | 0°C | 0% | 0hPa | 0V | 00:00:00 | 00:00:00 | 00:00:00 | |
| DB0UT-7 | 2026-09-02 12:44:49 | 46.35372 | 3.73910 | 144° | 110km/h | 10533m | -3.0m/s | 0°C | 0% | 0hPa | 0V | 00:00:00 | 00:00:00 | 00:00:00 | |
| DB0UT-7 | 2026-09-02 12:44:19 | 46.36033 | 3.73166 | 143° | 110km/h | 10623m | -3.3m/s | 0°C | 0% | 0hPa | 0V | 00:00:00 | 00:00:00 | 00:00:00 | |
| DB0UT-7 | 2026-09-02 12:43:49 | 46.36688 | 3.72414 | 144° | 108km/h | 10713m | -3.1m/s | 0°C | 0% | 0hPa | 0V | 00:00:00 | 00:00:00 | 00:00:00 | |
| DB0UT-7 | 2026-09-02 12:43:11 | 46.37498 | 3.71495 | 143° | 110km/h | 10834m | -2.9m/s | 0°C | 0% | 0hPa | 0V | 00:00:00 | 00:00:00 | 00:00:00 | |
| DB0UT-7 | 2026-09-02 12:42:36 | 46.38239 | 3.70619 | 140° | 111km/h | 10928m | -2.9m/s | 0°C | 0% | 0hPa | 0V | 00:00:00 | 00:00:00 | 00:00:00 | |
| DB0UT-7 | 2026-09-02 12:41:17 | 46.39940 | 3.68496 | 139° | 113km/h | 11162m | -2.9m/s | 0°C | 0% | 0hPa | 0V | 00:00:00 | 00:00:00 | 00:00:00 | |
| DB0UT-7 | 2026-09-02 12:40:42 | 46.40688 | 3.67537 | 141° | 115km/h | 11269m | -2.7m/s | 0°C | 0% | 0hPa | 0V | 00:00:00 | 00:00:00 | 00:00:00 | |
| DB0UT-7 | 2026-09-02 12:40:12 | 46.41345 | 3.66718 | 141° | 115km/h | 11354m | -2.8m/s | 0°C | 0% | 0hPa | 0V | 00:00:00 | 00:00:00 | 00:00:00 | |
| DB0UT-7 | 2026-09-02 12:39:41 | 46.42034 | 3.65862 | 139° | 115km/h | 11466m | -2.8m/s | 0°C | 0% | 0hPa | 0V | 00:00:00 | 00:00:00 | 00:00:00 | |
| DB0ND-19 | 2026-09-02 12:39:18 | 46.42567 | 3.65193 | 140° | 117km/h | 11509m | -3.0m/s | -52.2°C | -1.0% | -1.0hPa | 0V | 00:00:00 | 00:00:00 | 00:00:00 | |
| DB0ND-19 | 2026-09-02 12:38:46 | 46.43295 | 3.64274 | 138° | 115km/h | 11602m | -2.8m/s | -53.1°C | -1.0% | -1.0hPa | 0V | 00:00:00 | 00:00:00 | 00:00:00 | |
| DB0UT-7 | 2026-09-02 12:38:04 | 46.44184 | 3.63158 | 138° | 117km/h | 11724m | -2.8m/s | 0°C | 0% | 0hPa | 0V | 00:00:00 | 00:00:00 | 00:00:00 | |
| DB0ND-19 | 2026-09-02 12:37:44 | 46.44654 | 3.62560 | 137° | 119km/h | 11777m | -2.8m/s | -54.6°C | -1.0% | -1.0hPa | 0V | 00:00:00 | 00:00:00 | 00:00:00 | |
| DB0ND-19 | 2026-09-02 12:37:13 | 46.45347 | 3.61664 | 139° | 115km/h | 11864m | -3.0m/s | -55.3°C | -1.0% | -1.0hPa | 0V | 00:00:00 | 00:00:00 | 00:00:00 | |
| DB0UT-7 | 2026-09-02 12:36:28 | 46.46303 | 3.60382 | 139° | 115km/h | 11998m | -2.7m/s | 0°C | 0% | 0hPa | 0V | 00:00:00 | 00:00:00 | 00:00:00 | |
| DB0ND-19 | 2026-09-02 12:36:11 | 46.46731 | 3.59855 | 143° | 108km/h | 12058m | -3.2m/s | -56.8°C | -1.0% | -1.0hPa | 0V | 00:00:00 | 00:00:00 | 00:00:00 | |
| DB0UT-7 | 2026-09-02 12:35:58 | 46.46961 | 3.59545 | 142° | 108km/h | 12098m | -3.7m/s | 0°C | 0% | 0hPa | 0V | 00:00:00 | 00:00:00 | 00:00:00 | |
| DB0UT-7 | 2026-09-02 12:35:28 | 46.47538 | 3.58711 | 131° | 104km/h | 12215m | -4.0m/s | 0°C | 0% | 0hPa | 0V | 00:00:00 | 00:00:00 | 00:00:00 | |
| DB0ND-19 | 2026-09-02 12:35:10 | 46.47914 | 3.58136 | 138° | 119km/h | 12279m | -3.6m/s | -58.3°C | -1.0% | -1.0hPa | 0V | 00:00:00 | 00:00:00 | 00:00:00 | |
| DB0UT-7 | 2026-09-02 12:34:58 | 46.48104 | 3.57876 | 133° | 111km/h | 12319m | -3.3m/s | 0°C | 0% | 0hPa | 0V | 00:00:00 | 00:00:00 | 00:00:00 | |
| DB0UT-7 | 2026-09-02 12:34:20 | 46.48851 | 3.56816 | 135° | 97km/h | 12461m | -3.2m/s | 0°C | 0% | 0hPa | 0V | 00:00:00 | 00:00:00 | 00:00:00 | |
| DB0ND-19 | 2026-09-02 12:34:07 | 46.49121 | 3.56457 | 129° | 99km/h | 12514m | -3.7m/s | -58.4°C | -1.0% | -1.0hPa | 0V | 00:00:00 | 00:00:00 | 00:00:00 | |
| DB0ND-19 | 2026-09-02 12:33:36 | 46.49732 | 3.55639 | 131° | 88km/h | 12639m | -3.9m/s | -59.1°C | -1.0% | -1.0hPa | 0V | 00:00:00 | 00:00:00 | 00:00:00 | |
| DB0ND-19 | 2026-09-02 12:33:05 | 46.50576 | 3.54507 | 132° | 100km/h | 12813m | -4.6m/s | -59.4°C | -1.0% | -1.0hPa | 0V | 00:00:00 | 00:00:00 | 00:00:00 | |
| DB0UT-7 | 2026-09-02 12:32:28 | 46.50960 | 3.53994 | 128° | 119km/h | 12906m | -4.3m/s | 0°C | 0% | 0hPa | 0V | 00:00:00 | 00:00:00 | 00:00:00 | |
| DB0ND-19 | 2026-09-02 12:32:04 | 46.51435 | 3.53345 | 136° | 84km/h | 13008m | -4.3m/s | -59.5°C | -1.0% | -1.0hPa | 0V | 00:00:00 | 00:00:00 | 00:00:00 | |
| DB0ND-19 | 2026-09-02 12:31:32 | 46.52013 | 3.52623 | 144° | 93km/h | 13134m | -4.1m/s | -60.1°C | -1.0% | -1.0hPa | 0V | 00:00:00 | 00:00:00 | 00:00:00 | |
| DB0UT-7 | 2026-09-02 12:31:04 | 46.52556 | 3.52020 | 150° | 97km/h | 13248m | -3.3m/s | 0°C | 0% | 0hPa | 0V | 00:00:00 | 00:00:00 | 00:00:00 | |
| DB0ND-19 | 2026-09-02 12:31:01 | 46.52645 | 3.51934 | 143° | 111km/h | 13252m | -4.0m/s | -60.3°C | -1.0% | -1.0hPa | 0V | 00:00:00 | 00:00:00 | 00:00:00 | |
| DB0UT-7 | 2026-09-02 12:30:34 | 46.53149 | 3.51416 | 142° | 86km/h | 13355m | -3.7m/s | 0°C | 0% | 0hPa | 0V | 00:00:00 | 00:00:00 | 00:00:00 | |
| DB0ND-19 | 2026-09-02 12:30:31 | 46.53240 | 3.51316 | 145° | 75km/h | 13370m | -3.1m/s | -60.9°C | -1.0% | -1.0hPa | 0V | 00:00:00 | 00:00:00 | 00:00:00 | |
| DB0UT-7 | 2026-09-02 12:29:56 | 46.53763 | 3.50671 | 134° | 82km/h | 13506m | -3.5m/s | 0°C | 0% | 0hPa | 0V | 00:00:00 | 00:00:00 | 00:00:00 | |
| DB0UT-7 | 2026-09-02 12:29:26 | 46.54195 | 3.50031 | 137° | 84km/h | 13637m | -3.5m/s | 0°C | 0% | 0hPa | 0V | 00:00:00 | 00:00:00 | 00:00:00 | |
| DB0UT-7 | 2026-09-02 12:28:56 | 46.54658 | 3.49382 | 138° | 77km/h | 13741m | -4.0m/s | 0°C | 0% | 0hPa | 0V | 00:00:00 | 00:00:00 | 00:00:00 | |
| DB0ND-19 | 2026-09-02 12:28:26 | 46.55088 | 3.48755 | 133° | 73km/h | 13862m | -4.1m/s | -61.2°C | -1.0% | -1.0hPa | 0V | 00:00:00 | 00:00:00 | 00:00:00 | |
| DB0UT-7 | 2026-09-02 12:27:44 | 46.55641 | 3.47952 | 132° | 77km/h | 14049m | -4.3m/s | 0°C | 0% | 0hPa | 0V | 00:00:00 | 00:00:00 | 00:00:00 | |
| DB0UT-7 | 2026-09-02 12:27:14 | 46.56013 | 3.47303 | 129° | 73km/h | 14166m | -4.3m/s | 0°C | 0% | 0hPa | 0V | 00:00:00 | 00:00:00 | 00:00:00 | |
| DB0ND-19 | 2026-09-02 12:26:53 | 46.56272 | 3.46812 | 127° | 68km/h | 14262m | -4.2m/s | -61.5°C | -1.0% | -1.0hPa | 0V | 00:00:00 | 00:00:00 | 00:00:00 | |
| DB0UT-7 | 2026-09-02 12:26:30 | 46.56498 | 3.46361 | 126° | 71km/h | 14364m | -4.5m/s | 0°C | 0% | 0hPa | 0V | 00:00:00 | 00:00:00 | 00:00:00 | |
| DB0ND-19 | 2026-09-02 12:26:22 | 46.56588 | 3.46196 | 121° | 66km/h | 14395m | -4.5m/s | -61.0°C | -1.0% | -1.0hPa | 0V | 00:00:00 | 00:00:00 | 00:00:00 | |
| DB0UT-7 | 2026-09-02 12:25:59 | 46.56792 | 3.45702 | 121° | 78km/h | 14500m | -4.5m/s | 0°C | 0% | 0hPa | 0V | 00:00:00 | 00:00:00 | 00:00:00 | |
| DB0ND-19 | 2026-09-02 12:25:50 | 46.56888 | 3.45493 | 124° | 77km/h | 14536m | -4.5m/s | -61.0°C | -1.0% | -1.0hPa | 0V | 00:00:00 | 00:00:00 | 00:00:00 | |
| DB0UT-7 | 2026-09-02 12:25:29 | 46.57150 | 3.45004 | 134° | 62km/h | 14637m | -4.5m/s | 0°C | 0% | 0hPa | 0V | 00:00:00 | 00:00:00 | 00:00:00 | |
| DB0ND-19 | 2026-09-02 12:25:19 | 46.57291 | 3.44785 | 133° | 80km/h | 14678m | -4.4m/s | -61.1°C | -1.0% | -1.0hPa | 0V | 00:00:00 | 00:00:00 | 00:00:00 | |
| DB0ND-19 | 2026-09-02 12:24:48 | 46.57762 | 3.44192 | 141° | 66km/h | 14829m | -4.6m/s | -60.6°C | -1.0% | -1.0hPa | 0V | 00:00:00 | 00:00:00 | 00:00:00 | |
| DB0UT-7 | 2026-09-02 12:24:13 | 46.58132 | 3.43754 | 135° | 55km/h | 15024m | -4.7m/s | 0°C | 0% | 0hPa | 0V | 00:00:00 | 00:00:00 | 00:00:00 | |
| DB0UT-7 | 2026-09-02 12:23:40 | 46.58389 | 3.43245 | 120° | 62km/h | 15136m | -4.6m/s | 0°C | 0% | 0hPa | 0V | 00:00:00 | 00:00:00 | 00:00:00 | |
| DB0ND-19 | 2026-09-02 12:23:15 | 46.58592 | 3.42752 | 122° | 64km/h | 15259m | -4.7m/s | -60.8°C | -1.0% | -1.0hPa | 0V | 00:00:00 | 00:00:00 | 00:00:00 | |
| DB0UT-7 | 2026-09-02 12:22:55 | 46.58751 | 3.42374 | 117° | 62km/h | 15359m | -4.9m/s | 0°C | 0% | 0hPa | 0V | 00:00:00 | 00:00:00 | 00:00:00 | |
| DB0ND-19 | 2026-09-02 12:22:45 | 46.58849 | 3.42127 | 121° | 62km/h | 15407m | -5.0m/s | -61.0°C | -1.0% | -1.0hPa | 0V | 00:00:00 | 00:00:00 | 00:00:00 | |
| DB0UT-7 | 2026-09-02 12:22:25 | 46.58985 | 3.41773 | 120° | 62km/h | 15502m | -5.1m/s | 0°C | 0% | 0hPa | 0V | 00:00:00 | 00:00:00 | 00:00:00 | |
| DB0ND-19 | 2026-09-02 12:22:13 | 46.59081 | 3.41503 | 117° | 62km/h | 15567m | -5.0m/s | -60.6°C | -1.0% | -1.0hPa | 0V | 00:00:00 | 00:00:00 | 00:00:00 | |
| DB0UT-7 | 2026-09-02 12:21:56 | 46.59198 | 3.41162 | 116° | 71km/h | 15668m | -4.8m/s | 0°C | 0% | 0hPa | 0V | 00:00:00 | 00:00:00 | 00:00:00 | |
| DB0UT-7 | 2026-09-02 12:21:25 | 46.59453 | 3.40474 | 119° | 69km/h | 15812m | -5.1m/s | 0°C | 0% | 0hPa | 0V | 00:00:00 | 00:00:00 | 00:00:00 | |
| DB0ND-19 | 2026-09-02 12:21:11 | 46.59588 | 3.40133 | 125° | 68km/h | 15880m | -5.1m/s | -60.1°C | -1.0% | -1.0hPa | 0V | 00:00:00 | 00:00:00 | 00:00:00 | |
| DB0UT-7 | 2026-09-02 12:20:52 | 46.59759 | 3.39768 | 128° | 58km/h | 15975m | -5.3m/s | 0°C | 0% | 0hPa | 0V | 00:00:00 | 00:00:00 | 00:00:00 | |
| DB0ND-19 | 2026-09-02 12:20:40 | 46.59915 | 3.39529 | 134° | 60km/h | 16044m | -5.4m/s | -59.8°C | -1.0% | -1.0hPa | 0V | 00:00:00 | 00:00:00 | 00:00:00 | |
| DB0UT-7 | 2026-09-02 12:20:20 | 46.60109 | 3.39261 | 138° | 44km/h | 16152m | -5.2m/s | 0°C | 0% | 0hPa | 0V | 00:00:00 | 00:00:00 | 00:00:00 | |
| DB0ND-19 | 2026-09-02 12:20:10 | 46.60203 | 3.39110 | 129° | 42km/h | 16211m | -5.1m/s | -59.0°C | -1.0% | -1.0hPa | 0V | 00:00:00 | 00:00:00 | 00:00:00 | |
| DB0ND-19 | 2026-09-02 12:19:39 | 46.60371 | 3.38613 | 115° | 47km/h | 16396m | -5.4m/s | -58.7°C | -1.0% | -1.0hPa | 0V | 00:00:00 | 00:00:00 | 00:00:00 | |
| DB0UT-7 | 2026-09-02 12:19:07 | 46.60466 | 3.38203 | 102° | 49km/h | 16551m | -5.4m/s | 0°C | 0% | 0hPa | 0V | 00:00:00 | 00:00:00 | 00:00:00 | |
| DB0UT-7 | 2026-09-02 12:18:37 | 46.60494 | 3.37658 | 89° | 58km/h | 16717m | -5.3m/s | 0°C | 0% | 0hPa | 0V | 00:00:00 | 00:00:00 | 00:00:00 | |
| DB0ND-19 | 2026-09-02 12:18:36 | 46.60494 | 3.37617 | 89° | 55km/h | 16722m | -5.5m/s | -57.9°C | -1.0% | -1.0hPa | 0V | 00:00:00 | 00:00:00 | 00:00:00 | |
| DB0ND-19 | 2026-09-02 12:18:05 | 46.60572 | 3.36903 | 108° | 68km/h | 16898m | -5.7m/s | -58.1°C | -1.0% | -1.0hPa | 0V | 00:00:00 | 00:00:00 | 00:00:00 | |
| DB0UT-7 | 2026-09-02 12:17:28 | 46.60811 | 3.36173 | 124° | 47km/h | 17113m | -6.0m/s | 0°C | 0% | 0hPa | 0V | 00:00:00 | 00:00:00 | 00:00:00 | |
| DB0ND-19 | 2026-09-02 12:17:03 | 46.60964 | 3.35753 | 115° | 46km/h | 17268m | -6.0m/s | -57.5°C | -1.0% | -1.0hPa | 0V | 00:00:00 | 00:00:00 | 00:00:00 | |
| DB0UT-7 | 2026-09-02 12:16:58 | 46.60980 | 3.35704 | 120° | 42km/h | 17293m | -6.0m/s | 0°C | 0% | 0hPa | 0V | 00:00:00 | 00:00:00 | 00:00:00 | |
| DB0UT-7 | 2026-09-02 12:16:15 | 46.61151 | 3.35168 | 96° | 40km/h | 17628m | -6.1m/s | 0°C | 0% | 0hPa | 0V | 00:00:00 | 00:00:00 | 00:00:00 | |
| DB0UT-7 | 2026-09-02 12:15:46 | 46.61203 | 3.34746 | 112° | 35km/h | 17743m | -6.3m/s | 0°C | 0% | 0hPa | 0V | 00:00:00 | 00:00:00 | 00:00:00 | |
| DB0UT-7 | 2026-09-02 12:15:15 | 46.61281 | 3.34391 | 108° | 37km/h | 17942m | -6.3m/s | 0°C | 0% | 0hPa | 0V | 00:00:00 | 00:00:00 | 00:00:00 | |
| DB0ND-19 | 2026-09-02 12:14:59 | 46.61319 | 3.34206 | 114° | 31km/h | 18045m | -6.5m/s | -56.2°C | -1.0% | -1.0hPa | 0V | 00:00:00 | 00:00:00 | 00:00:00 | |
| DB0ND-19 | 2026-09-02 12:14:28 | 46.61403 | 3.33889 | 100° | 31km/h | 18254m | -6.4m/s | -56.1°C | -1.0% | -1.0hPa | 0V | 00:00:00 | 00:00:00 | 00:00:00 | |
| DB0UT-7 | 2026-09-02 12:14:01 | 46.61435 | 3.33531 | 103° | 33km/h | 18426m | -6.8m/s | 0°C | 0% | 0hPa | 0V | 00:00:00 | 00:00:00 | 00:00:00 | |
| DB0ND-19 | 2026-09-02 12:13:57 | 46.61445 | 3.33460 | 98° | 35km/h | 18454m | -6.5m/s | -55.1°C | -1.0% | -1.0hPa | 0V | 00:00:00 | 00:00:00 | 00:00:00 | |
| DB0UT-7 | 2026-09-02 12:13:31 | 46.61490 | 3.33179 | 93° | 27km/h | 18631m | -7.0m/s | 0°C | 0% | 0hPa | 0V | 00:00:00 | 00:00:00 | 00:00:00 | |
| DB0ND-19 | 2026-09-02 12:13:26 | 46.61491 | 3.33130 | 92° | 24km/h | 18665m | -6.8m/s | -54.9°C | -1.0% | -1.0hPa | 0V | 00:00:00 | 00:00:00 | 00:00:00 | |
| DB0UT-7 | 2026-09-02 12:12:49 | 46.61489 | 3.32734 | 101° | 27km/h | 18932m | -7.0m/s | 0°C | 0% | 0hPa | 0V | 00:00:00 | 00:00:00 | 00:00:00 | |
| DB0UT-7 | 2026-09-02 12:12:18 | 46.61503 | 3.32424 | 73° | 33km/h | 19150m | -7.2m/s | 0°C | 0% | 0hPa | 0V | 00:00:00 | 00:00:00 | 00:00:00 | |
| DB0UT-7 | 2026-09-02 12:11:48 | 46.61432 | 3.32088 | 79° | 33km/h | 19371m | -7.6m/s | 0°C | 0% | 0hPa | 0V | 00:00:00 | 00:00:00 | 00:00:00 | |
| DB0UT-7 | 2026-09-02 12:11:18 | 46.61511 | 3.31740 | 131° | 27km/h | 19599m | -8.2m/s | 0°C | 0% | 0hPa | 0V | 00:00:00 | 00:00:00 | 00:00:00 | |
| DB0UT-7 | 2026-09-02 12:10:47 | 46.61673 | 3.31493 | 146° | 20km/h | 19827m | -7.9m/s | 0°C | 0% | 0hPa | 0V | 00:00:00 | 00:00:00 | 00:00:00 | |
| DB0UT-7 | 2026-09-02 12:10:17 | 46.61722 | 3.31431 | 93° | 22km/h | 20067m | -8.2m/s | 0°C | 0% | 0hPa | 0V | 00:00:00 | 00:00:00 | 00:00:00 | |
| DB0UT-7 | 2026-09-02 12:09:47 | 46.61654 | 3.31300 | 82° | 13km/h | 20310m | -7.8m/s | 0°C | 0% | 0hPa | 0V | 00:00:00 | 00:00:00 | 00:00:00 | |
| DB0ND-19 | 2026-09-02 12:09:18 | 46.61686 | 3.31192 | 120° | 11km/h | 20447m | 3.2m/s | -54.0°C | -1.0% | -1.0hPa | 0V | 00:00:00 | 00:00:00 | 00:00:00 | |
| DB0UT-7 | 2026-09-02 12:08:45 | 46.61692 | 3.31085 | 83° | 13km/h | 20302m | 3.3m/s | 0°C | 0% | 0hPa | 0V | 00:00:00 | 00:00:00 | 00:00:00 | |
| DB0UT-7 | 2026-09-02 12:08:16 | 46.61651 | 3.30959 | 340° | 7km/h | 20141m | 4.7m/s | 0°C | 0% | 0hPa | 0V | 00:00:00 | 00:00:00 | 00:00:00 | |
| DB0ND-19 | 2026-09-02 12:08:15 | 46.61649 | 3.30957 | 0° | 5km/h | 20163m | 4.7m/s | -54.2°C | -1.0% | -1.0hPa | 0V | 00:00:00 | 00:00:00 | 00:00:00 | |
| DB0UT-7 | 2026-09-02 12:07:23 | 46.61635 | 3.30921 | 159° | 22km/h | 19923m | 5.2m/s | 0°C | 0% | 0hPa | 0V | 00:00:00 | 00:00:00 | 00:00:00 | |
| DB0ND-19 | 2026-09-02 12:07:13 | 46.61687 | 3.30895 | 162° | 26km/h | 19877m | 5.6m/s | -54.7°C | -1.0% | -1.0hPa | 0V | 00:00:00 | 00:00:00 | 00:00:00 | |
| DB0UT-7 | 2026-09-02 12:06:53 | 46.61778 | 3.30805 | 133° | 31km/h | 19783m | 4.5m/s | 0°C | 0% | 0hPa | 0V | 00:00:00 | 00:00:00 | 00:00:00 | |
| DB0ND-19 | 2026-09-02 12:06:42 | 46.61835 | 3.30728 | 141° | 24km/h | 19732m | 5.2m/s | -55.2°C | -1.0% | -1.0hPa | 0V | 00:00:00 | 00:00:00 | 00:00:00 | |
| DB0UT-7 | 2026-09-02 12:06:22 | 46.61929 | 3.30558 | 126° | 33km/h | 19640m | 5.4m/s | 0°C | 0% | 0hPa | 0V | 00:00:00 | 00:00:00 | 00:00:00 | |
| DB0ND-19 | 2026-09-02 12:06:11 | 46.62003 | 3.30428 | 125° | 40km/h | 19583m | 5.5m/s | -56.1°C | -1.0% | -1.0hPa | 0V | 00:00:00 | 00:00:00 | 00:00:00 | |
| DB0UT-7 | 2026-09-02 12:05:46 | 46.62087 | 3.30169 | 106° | 33km/h | 19463m | 3.9m/s | 0°C | 0% | 0hPa | 0V | 00:00:00 | 00:00:00 | 00:00:00 | |
| DB0ND-19 | 2026-09-02 12:05:41 | 46.62101 | 3.30076 | 94° | 31km/h | 19430m | 4.8m/s | -56.4°C | -1.0% | -1.0hPa | 0V | 00:00:00 | 00:00:00 | 00:00:00 | |
| DB0UT-7 | 2026-09-02 12:05:16 | 46.62092 | 3.29819 | 80° | 33km/h | 19322m | 5.6m/s | 0°C | 0% | 0hPa | 0V | 00:00:00 | 00:00:00 | 00:00:00 | |
| DB0ND-19 | 2026-09-02 12:05:09 | 46.62074 | 3.29729 | 65° | 27km/h | 19289m | 5.4m/s | -55.9°C | -1.0% | -1.0hPa | 0V | 00:00:00 | 00:00:00 | 00:00:00 | |
| DB0UT-7 | 2026-09-02 12:04:46 | 46.62005 | 3.29497 | 56° | 29km/h | 19179m | 4.8m/s | 0°C | 0% | 0hPa | 0V | 00:00:00 | 00:00:00 | 00:00:00 | |
| DB0ND-19 | 2026-09-02 12:04:38 | 46.61976 | 3.29406 | 64° | 29km/h | 19143m | 5.1m/s | -55.3°C | -1.0% | -1.0hPa | 0V | 00:00:00 | 00:00:00 | 00:00:00 | |
| DB0UT-7 | 2026-09-02 12:04:15 | 46.61942 | 3.29203 | 82° | 29km/h | 19036m | 3.3m/s | 0°C | 0% | 0hPa | 0V | 00:00:00 | 00:00:00 | 00:00:00 | |
| DB0ND-19 | 2026-09-02 12:04:07 | 46.61945 | 3.29124 | 98° | 24km/h | 18998m | 3.7m/s | -55.4°C | -1.0% | -1.0hPa | 0V | 00:00:00 | 00:00:00 | 00:00:00 | |
| DB0UT-7 | 2026-09-02 12:03:43 | 46.61986 | 3.28882 | 92° | 29km/h | 18884m | 4.6m/s | 0°C | 0% | 0hPa | 0V | 00:00:00 | 00:00:00 | 00:00:00 | |
| DB0ND-19 | 2026-09-02 12:03:36 | 46.61987 | 3.28799 | 92° | 27km/h | 18851m | 4.8m/s | -54.8°C | -1.0% | -1.0hPa | 0V | 00:00:00 | 00:00:00 | 00:00:00 | |
| DB0UT-7 | 2026-09-02 12:03:13 | 46.61975 | 3.28554 | 94° | 33km/h | 18746m | 5.1m/s | 0°C | 0% | 0hPa | 0V | 00:00:00 | 00:00:00 | 00:00:00 | |
| DB0ND-19 | 2026-09-02 12:03:05 | 46.61973 | 3.28424 | 84° | 31km/h | 18705m | 5.3m/s | -54.7°C | -1.0% | -1.0hPa | 0V | 00:00:00 | 00:00:00 | 00:00:00 | |
| DB0UT-7 | 2026-09-02 12:02:43 | 46.61976 | 3.28218 | 91° | 33km/h | 18591m | 4.3m/s | 0°C | 0% | 0hPa | 0V | 00:00:00 | 00:00:00 | 00:00:00 | |
| DB0ND-19 | 2026-09-02 12:02:34 | 46.61994 | 3.28125 | 100° | 27km/h | 18569m | 4.6m/s | -54.8°C | -1.0% | -1.0hPa | 0V | 00:00:00 | 00:00:00 | 00:00:00 | |
| DB0UT-7 | 2026-09-02 12:02:13 | 46.62036 | 3.27873 | 99° | 42km/h | 18474m | 3.6m/s | 0°C | 0% | 0hPa | 0V | 00:00:00 | 00:00:00 | 00:00:00 | |
| DB0UT-7 | 2026-09-02 12:01:43 | 46.62100 | 3.27423 | 95° | 38km/h | 18342m | 3.7m/s | 0°C | 0% | 0hPa | 0V | 00:00:00 | 00:00:00 | 00:00:00 | |
| DB0ND-19 | 2026-09-02 12:01:32 | 46.62104 | 3.27253 | 98° | 33km/h | 18292m | 3.6m/s | -56.3°C | -1.0% | -1.0hPa | 0V | 00:00:00 | 00:00:00 | 00:00:00 | |
| DB0UT-7 | 2026-09-02 12:01:13 | 46.62138 | 3.27043 | 94° | 29km/h | 18207m | 5.1m/s | 0°C | 0% | 0hPa | 0V | 00:00:00 | 00:00:00 | 00:00:00 | |
| DB0ND-19 | 2026-09-02 12:01:01 | 46.62173 | 3.26912 | 121° | 24km/h | 18154m | 5.2m/s | -56.0°C | -1.0% | -1.0hPa | 0V | 00:00:00 | 00:00:00 | 00:00:00 | |
| DB0UT-7 | 2026-09-02 12:00:43 | 46.62254 | 3.26750 | 127° | 33km/h | 18043m | 3.9m/s | 0°C | 0% | 0hPa | 0V | 00:00:00 | 00:00:00 | 00:00:00 | |
| DB0ND-19 | 2026-09-02 12:00:30 | 46.62307 | 3.26586 | 102° | 31km/h | 18009m | 5.5m/s | -56.3°C | -1.0% | -1.0hPa | 0V | 00:00:00 | 00:00:00 | 00:00:00 | |
| DB0UT-7 | 2026-09-02 12:00:09 | 46.62351 | 3.26374 | 110° | 44km/h | 17919m | 4.0m/s | 0°C | 0% | 0hPa | 0V | 00:00:00 | 00:00:00 | 00:00:00 | |
| DB0ND-19 | 2026-09-02 11:59:59 | 46.62378 | 3.26249 | 104° | 31km/h | 17874m | 5.4m/s | -56.2°C | -1.0% | -1.0hPa | 0V | 00:00:00 | 00:00:00 | 00:00:00 | |
| DB0ND-19 | 2026-09-02 11:59:28 | 46.62499 | 3.25834 | 110° | 40km/h | 17735m | 4.2m/s | -57.2°C | -1.0% | -1.0hPa | 0V | 00:00:00 | 00:00:00 | 00:00:00 | |
| DB0ND-19 | 2026-09-02 11:58:57 | 46.62544 | 3.25406 | 95° | 31km/h | 17594m | 5.6m/s | -57.1°C | -1.0% | -1.0hPa | 0V | 00:00:00 | 00:00:00 | 00:00:00 | |
| DB0ND-19 | 2026-09-02 11:58:26 | 46.62615 | 3.25069 | 120° | 31km/h | 17452m | 3.4m/s | -57.0°C | -1.0% | -1.0hPa | 0V | 00:00:00 | 00:00:00 | 00:00:00 | |
| DB0ND-19 | 2026-09-02 11:57:55 | 46.62788 | 3.24657 | 121° | 49km/h | 17309m | 4.2m/s | -57.6°C | -1.0% | -1.0hPa | 0V | 00:00:00 | 00:00:00 | 00:00:00 | |
| DB0UT-7 | 2026-09-02 11:57:08 | 46.63030 | 3.23982 | 118° | 57km/h | 17104m | 4.2m/s | 0°C | 0% | 0hPa | 0V | 00:00:00 | 00:00:00 | 00:00:00 | |
| DB0UT-7 | 2026-09-02 11:56:38 | 46.63213 | 3.23405 | 113° | 66km/h | 16978m | 3.9m/s | 0°C | 0% | 0hPa | 0V | 00:00:00 | 00:00:00 | 00:00:00 | |
| DB0UT-7 | 2026-09-02 11:56:08 | 46.63324 | 3.22714 | 97° | 44km/h | 16828m | 5.0m/s | 0°C | 0% | 0hPa | 0V | 00:00:00 | 00:00:00 | 00:00:00 | |
| DB0ND-19 | 2026-09-02 11:55:20 | 46.63320 | 3.21747 | 90° | 38km/h | 16632m | 4.7m/s | -57.8°C | -1.0% | -1.0hPa | 0V | 00:00:00 | 00:00:00 | 00:00:00 | |
| DB0UT-7 | 2026-09-02 11:54:59 | 46.63325 | 3.21466 | 90° | 38km/h | 16534m | 4.2m/s | 0°C | 0% | 0hPa | 0V | 00:00:00 | 00:00:00 | 00:00:00 | |
| DB0ND-19 | 2026-09-02 11:54:49 | 46.63337 | 3.21325 | 104° | 33km/h | 16498m | 5.2m/s | -58.1°C | -1.0% | -1.0hPa | 0V | 00:00:00 | 00:00:00 | 00:00:00 | |
| DB0UT-7 | 2026-09-02 11:54:29 | 46.63401 | 3.21069 | 121° | 42km/h | 16409m | 3.4m/s | 0°C | 0% | 0hPa | 0V | 00:00:00 | 00:00:00 | 00:00:00 | |
| DB0ND-19 | 2026-09-02 11:54:17 | 46.63459 | 3.20881 | 117° | 40km/h | 16353m | 4.2m/s | -58.4°C | -1.0% | -1.0hPa | 0V | 00:00:00 | 00:00:00 | 00:00:00 | |
| DB0UT-7 | 2026-09-02 11:53:45 | 46.63594 | 3.20451 | 123° | 47km/h | 16209m | 3.3m/s | 0°C | 0% | 0hPa | 0V | 00:00:00 | 00:00:00 | 00:00:00 | |
| DB0UT-7 | 2026-09-02 11:53:15 | 46.63838 | 3.20062 | 136° | 58km/h | 16067m | 4.6m/s | 0°C | 0% | 0hPa | 0V | 00:00:00 | 00:00:00 | 00:00:00 | |
| DB0UT-7 | 2026-09-02 11:52:45 | 46.64155 | 3.19571 | 129° | 69km/h | 15937m | 4.4m/s | 0°C | 0% | 0hPa | 0V | 00:00:00 | 00:00:00 | 00:00:00 | |
| DB0ND-19 | 2026-09-02 11:52:44 | 46.64176 | 3.19532 | 129° | 66km/h | 15928m | 4.5m/s | -59.4°C | -1.0% | -1.0hPa | 0V | 00:00:00 | 00:00:00 | 00:00:00 | |
| DB0UT-7 | 2026-09-02 11:52:11 | 46.64491 | 3.18861 | 119° | 69km/h | 15782m | 4.7m/s | 0°C | 0% | 0hPa | 0V | 00:00:00 | 00:00:00 | 00:00:00 | |
| DB0ND-19 | 2026-09-02 11:51:42 | 46.64737 | 3.18192 | 121° | 64km/h | 15655m | 5.2m/s | -60.2°C | -1.0% | -1.0hPa | 0V | 00:00:00 | 00:00:00 | 00:00:00 | |
| DB0ND-19 | 2026-09-02 11:51:12 | 46.65007 | 3.17525 | 119° | 60km/h | 15522m | 4.8m/s | -59.7°C | -1.0% | -1.0hPa | 0V | 00:00:00 | 00:00:00 | 00:00:00 | |
| DB0UT-7 | 2026-09-02 11:50:37 | 46.65243 | 3.16874 | 114° | 66km/h | 15380m | 4.0m/s | 0°C | 0% | 0hPa | 0V | 00:00:00 | 00:00:00 | 00:00:00 | |
| DB0UT-7 | 2026-09-02 11:50:05 | 46.65513 | 3.16210 | 118° | 62km/h | 15231m | 3.3m/s | 0°C | 0% | 0hPa | 0V | 00:00:00 | 00:00:00 | 00:00:00 | |
| DB0UT-7 | 2026-09-02 11:49:32 | 46.65795 | 3.15576 | 120° | 58km/h | 15110m | 5.2m/s | 0°C | 0% | 0hPa | 0V | 00:00:00 | 00:00:00 | 00:00:00 | |
| DB0ND-19 | 2026-09-02 11:49:09 | 46.66002 | 3.15089 | 121° | 55km/h | 14995m | 4.3m/s | -60.8°C | -1.0% | -1.0hPa | 0V | 00:00:00 | 00:00:00 | 00:00:00 | |
| DB0UT-7 | 2026-09-02 11:49:00 | 46.66045 | 3.14989 | 125° | 58km/h | 14951m | 5.6m/s | 0°C | 0% | 0hPa | 0V | 00:00:00 | 00:00:00 | 00:00:00 | |
| DB0UT-7 | 2026-09-02 11:48:30 | 46.66331 | 3.14527 | 143° | 71km/h | 14815m | 3.4m/s | 0°C | 0% | 0hPa | 0V | 00:00:00 | 00:00:00 | 00:00:00 | |
| DB0UT-7 | 2026-09-02 11:47:58 | 46.66768 | 3.14014 | 139° | 82km/h | 14666m | 5.4m/s | 0°C | 0% | 0hPa | 0V | 00:00:00 | 00:00:00 | 00:00:00 | |
| DB0UT-7 | 2026-09-02 11:47:17 | 46.67364 | 3.13048 | 131° | 75km/h | 14453m | 3.5m/s | 0°C | 0% | 0hPa | 0V | 00:00:00 | 00:00:00 | 00:00:00 | |
| DB0ND-19 | 2026-09-02 11:47:03 | 46.67547 | 3.12689 | 124° | 80km/h | 14410m | 5.1m/s | -60.7°C | -1.0% | -1.0hPa | 0V | 00:00:00 | 00:00:00 | 00:00:00 | |
| DB0UT-7 | 2026-09-02 11:46:40 | 46.67776 | 3.12186 | 125° | 75km/h | 14302m | 5.2m/s | 0°C | 0% | 0hPa | 0V | 00:00:00 | 00:00:00 | 00:00:00 | |
| DB0ND-19 | 2026-09-02 11:46:32 | 46.67897 | 3.11978 | 130° | 73km/h | 14267m | 4.3m/s | -61.0°C | -1.0% | -1.0hPa | 0V | 00:00:00 | 00:00:00 | 00:00:00 | |
| DB0UT-7 | 2026-09-02 11:46:10 | 46.68124 | 3.11544 | 127° | 73km/h | 14180m | 4.5m/s | 0°C | 0% | 0hPa | 0V | 00:00:00 | 00:00:00 | 00:00:00 | |
| DB0ND-19 | 2026-09-02 11:46:01 | 46.68234 | 3.11319 | 124° | 80km/h | 14142m | 5.0m/s | -62.0°C | -1.0% | -1.0hPa | 0V | 00:00:00 | 00:00:00 | 00:00:00 | |
| DB0UT-7 | 2026-09-02 11:45:23 | 46.68685 | 3.10500 | 133° | 77km/h | 13984m | 4.5m/s | 0°C | 0% | 0hPa | 0V | 00:00:00 | 00:00:00 | 00:00:00 | |
| DB0UT-7 | 2026-09-02 11:44:53 | 46.69104 | 3.09886 | 134° | 78km/h | 13858m | 4.6m/s | 0°C | 0% | 0hPa | 0V | 00:00:00 | 00:00:00 | 00:00:00 | |
| DB0UT-7 | 2026-09-02 11:44:23 | 46.69522 | 3.09269 | 136° | 88km/h | 13692m | 4.6m/s | 0°C | 0% | 0hPa | 0V | 00:00:00 | 00:00:00 | 00:00:00 | |
| DB0UT-7 | 2026-09-02 11:43:51 | 46.70033 | 3.08547 | 136° | 89km/h | 13591m | 3.5m/s | 0°C | 0% | 0hPa | 0V | 00:00:00 | 00:00:00 | 00:00:00 | |
| DB0UT-7 | 2026-09-02 11:43:21 | 46.70517 | 3.07861 | 136° | 88km/h | 13457m | 5.5m/s | 0°C | 0% | 0hPa | 0V | 00:00:00 | 00:00:00 | 00:00:00 | |
| DB0UT-7 | 2026-09-02 11:42:51 | 46.71020 | 3.07223 | 143° | 99km/h | 13321m | 5.5m/s | 0°C | 0% | 0hPa | 0V | 00:00:00 | 00:00:00 | 00:00:00 | |
| DB0UT-7 | 2026-09-02 11:42:21 | 46.71607 | 3.06556 | 142° | 104km/h | 13174m | 4.4m/s | 0°C | 0% | 0hPa | 0V | 00:00:00 | 00:00:00 | 00:00:00 | |
| DB0UT-7 | 2026-09-02 11:41:43 | 46.72363 | 3.05643 | 137° | 102km/h | 13005m | 4.4m/s | 0°C | 0% | 0hPa | 0V | 00:00:00 | 00:00:00 | 00:00:00 | |
| DB0UT-7 | 2026-09-02 11:41:13 | 46.72923 | 3.04864 | 139° | 115km/h | 12902m | 4.3m/s | 0°C | 0% | 0hPa | 0V | 00:00:00 | 00:00:00 | 00:00:00 | |
| DB0ND-19 | 2026-09-02 11:40:51 | 46.73389 | 3.04235 | 139° | 104km/h | 12819m | 3.6m/s | -60.1°C | -1.0% | -1.0hPa | 0V | 00:00:00 | 00:00:00 | 00:00:00 | |
| DB0UT-7 | 2026-09-02 11:33:06 | 46.83171 | 2.91283 | 142° | 119km/h | 10875m | 2.8m/s | 0°C | 0% | 0hPa | 0V | 00:00:00 | 00:00:00 | 00:00:00 | |
| DB0UT-7 | 2026-09-02 11:32:35 | 46.83900 | 2.90462 | 143° | 119km/h | 10779m | 2.4m/s | 0°C | 0% | 0hPa | 0V | 00:00:00 | 00:00:00 | 00:00:00 | |
| DB0UT-7 | 2026-09-02 11:32:05 | 46.84627 | 2.89667 | 144° | 115km/h | 10658m | 5.2m/s | 0°C | 0% | 0hPa | 0V | 00:00:00 | 00:00:00 | 00:00:00 | |
| DB0UT-7 | 2026-09-02 11:31:19 | 46.85731 | 2.88512 | 146° | 113km/h | 10469m | 2.8m/s | 0°C | 0% | 0hPa | 0V | 00:00:00 | 00:00:00 | 00:00:00 | |
| DB0UT-7 | 2026-09-02 11:30:49 | 46.86431 | 2.87809 | 146° | 110km/h | 10363m | 4.5m/s | 0°C | 0% | 0hPa | 0V | 00:00:00 | 00:00:00 | 00:00:00 | |
| DB0UT-7 | 2026-09-02 11:30:00 | 46.87533 | 2.86657 | 144° | 108km/h | 10166m | 4.4m/s | 0°C | 0% | 0hPa | 0V | 00:00:00 | 00:00:00 | 00:00:00 | |
| DB0UT-7 | 2026-09-02 11:29:30 | 46.88171 | 2.85916 | 140° | 106km/h | 10038m | 4.1m/s | 0°C | 0% | 0hPa | 0V | 00:00:00 | 00:00:00 | 00:00:00 | |
| DB0UT-7 | 2026-09-02 11:28:58 | 46.88827 | 2.85096 | 137° | 102km/h | 9919m | 3.4m/s | 0°C | 0% | 0hPa | 0V | 00:00:00 | 00:00:00 | 00:00:00 | |
| DB0UT-7 | 2026-09-02 11:27:57 | 46.90019 | 2.83489 | 136° | 102km/h | 9688m | 4.5m/s | 0°C | 0% | 0hPa | 0V | 00:00:00 | 00:00:00 | 00:00:00 |